createdAt,value
2017-05-06T00:00:17.226Z,95458.25
2017-05-06T00:01:39.051Z,95455.92
2017-05-06T00:03:00.948Z,95454.14
2017-05-06T00:04:22.765Z,95449.4
2017-05-06T00:05:45.560Z,95450.92
2017-05-06T00:07:09.355Z,95449.19
2017-05-06T00:08:31.220Z,95449.94
2017-05-06T00:09:53.001Z,95448.03
2017-05-06T00:11:14.727Z,95443.86
2017-05-06T00:12:36.428Z,95442.41
2017-05-06T00:13:58.134Z,95439.14
2017-05-06T00:15:20.485Z,95433.01
2017-05-06T00:16:42.180Z,95427.84
2017-05-06T00:18:03.930Z,95425.59
2017-05-06T00:19:25.660Z,95426.48
2017-05-06T00:20:47.411Z,95427.1
2017-05-06T00:22:09.173Z,95424.5
2017-05-06T00:23:30.961Z,95422.29
2017-05-06T00:24:52.886Z,95417.22
2017-05-06T00:26:14.685Z,95416.59
2017-05-06T00:27:36.661Z,95412.25
2017-05-06T00:28:58.419Z,95413.55
2017-05-06T00:30:20.193Z,95410.17
2017-05-06T00:31:42.051Z,95407.59
2017-05-06T00:33:03.793Z,95402.14
2017-05-06T00:34:25.675Z,95402.69
2017-05-06T00:35:47.672Z,95397.58
2017-05-06T00:37:09.561Z,95395.75
2017-05-06T00:38:31.430Z,95394.81
2017-05-06T00:39:53.178Z,95390.37
2017-05-06T00:41:15.942Z,95384.95
2017-05-06T00:42:37.834Z,95380.45
2017-05-06T00:43:59.580Z,95376.98
2017-05-06T00:45:21.354Z,95375.86
2017-05-06T00:46:43.312Z,95377.42
2017-05-06T00:48:05.164Z,95373.97
2017-05-06T00:49:26.919Z,95375.66
2017-05-06T00:50:48.687Z,95371.55
2017-05-06T00:52:10.553Z,95372.35
2017-05-06T00:53:32.255Z,95368.59
2017-05-06T00:54:53.948Z,95365.77
2017-05-06T00:56:15.704Z,95365.75
2017-05-06T00:57:37.618Z,95363.91
2017-05-06T00:58:59.374Z,95364.27
2017-05-06T01:00:21.148Z,95362.33
2017-05-06T01:01:42.907Z,95363.23
2017-05-06T01:03:04.685Z,95359.38
2017-05-06T01:04:26.490Z,95358.22
2017-05-06T01:05:48.306Z,95358.78
2017-05-06T01:07:10.060Z,95360.26
2017-05-06T01:08:31.986Z,95358.58
2017-05-06T01:09:53.899Z,95354.47
2017-05-06T01:11:15.984Z,95358.75
2017-05-06T01:12:37.944Z,95352.34
2017-05-06T01:14:00.124Z,95352.59
2017-05-06T01:15:21.982Z,95355
2017-05-06T01:16:43.761Z,95353.8
2017-05-06T01:18:05.455Z,95351.81
2017-05-06T01:19:27.291Z,95353.66
2017-05-06T01:20:49.071Z,95353.89
2017-05-06T01:22:10.900Z,95356.26
2017-05-06T01:23:32.667Z,95350.13
2017-05-06T01:24:54.436Z,95343.45
2017-05-06T01:26:17.226Z,95348.05
2017-05-06T01:27:39.007Z,95350.19
2017-05-06T01:29:00.755Z,95350.64
2017-05-06T01:30:22.613Z,95350.44
2017-05-06T01:31:44.416Z,95348.41
2017-05-06T01:33:06.278Z,95342.95
2017-05-06T01:34:28.110Z,95340.9
2017-05-06T01:35:49.880Z,95337.37
2017-05-06T01:37:11.966Z,95342.47
2017-05-06T01:38:33.837Z,95337.7
2017-05-06T01:39:55.590Z,95336.43
2017-05-06T01:41:17.458Z,95331.36
2017-05-06T01:42:39.214Z,95335.5
2017-05-06T01:44:01.079Z,95336.09
2017-05-06T01:45:22.847Z,95335.86
2017-05-06T01:46:44.819Z,95335.16
2017-05-06T01:48:06.683Z,95327.73
2017-05-06T01:49:29.686Z,95326.48
2017-05-06T01:50:51.444Z,95323.61
2017-05-06T01:52:13.218Z,95323.2
2017-05-06T01:53:34.960Z,95317.2
2017-05-06T01:54:56.737Z,95317.45
2017-05-06T01:56:18.538Z,95315.6
2017-05-06T01:57:40.469Z,95312.23
2017-05-06T01:59:03.289Z,95308.95
2017-05-06T02:00:25.017Z,95304.84
2017-05-06T02:01:46.717Z,95303.22
2017-05-06T02:03:08.552Z,95309.27
2017-05-06T02:04:30.296Z,95305.81
2017-05-06T02:05:52.080Z,95306.86
2017-05-06T02:07:13.946Z,95304.06
2017-05-06T02:08:35.717Z,95304.63
2017-05-06T02:09:58.485Z,95305.02
2017-05-06T02:11:20.261Z,95302.84
2017-05-06T02:12:42.040Z,95301.63
2017-05-06T02:14:03.803Z,95296
2017-05-06T02:15:25.643Z,95294.95
2017-05-06T02:16:47.417Z,95298.96
2017-05-06T02:18:09.182Z,95290.45
2017-05-06T02:19:30.962Z,95289.55
2017-05-06T02:20:53.805Z,95290.14
2017-05-06T02:22:17.029Z,95286.88
2017-05-06T02:23:40.220Z,95286.48
2017-05-06T02:25:02.040Z,95283.83
2017-05-06T02:26:23.889Z,95280.01
2017-05-06T02:27:45.797Z,95275.8
2017-05-06T02:29:07.598Z,95279.2
2017-05-06T02:30:29.358Z,95279.36
2017-05-06T02:31:51.105Z,95278.06
2017-05-06T02:33:12.840Z,95273.34
2017-05-06T02:34:34.547Z,95269.78
2017-05-06T02:35:56.434Z,95267.49
2017-05-06T02:37:18.208Z,95272.79
2017-05-06T02:38:39.969Z,95270.63
2017-05-06T02:40:01.814Z,95269.41
2017-05-06T02:41:23.598Z,95268.8
2017-05-06T02:42:45.332Z,95267.84
2017-05-06T02:44:08.134Z,95264.62
2017-05-06T02:45:30.009Z,95264.62
2017-05-06T02:46:51.855Z,95269.34
2017-05-06T02:48:13.629Z,95267.26
2017-05-06T02:49:35.409Z,95265.7
2017-05-06T02:50:58.302Z,95262.23
2017-05-06T02:52:20.257Z,95263.85
2017-05-06T02:53:42.125Z,95269.41
2017-05-06T02:55:04.023Z,95266.67
2017-05-06T02:56:25.984Z,95272.13
2017-05-06T02:57:48.947Z,95269.27
2017-05-06T02:59:10.922Z,95268.7
2017-05-06T03:00:32.823Z,95271.19
2017-05-06T03:01:54.647Z,95268.87
2017-05-06T03:03:16.610Z,95270.88
2017-05-06T03:04:38.373Z,95266.62
2017-05-06T03:06:01.174Z,95261.33
2017-05-06T03:07:22.931Z,95267.51
2017-05-06T03:08:44.933Z,95264.62
2017-05-06T03:10:06.769Z,95267.69
2017-05-06T03:11:28.641Z,95262.45
2017-05-06T03:12:50.424Z,95262.29
2017-05-06T03:14:12.258Z,95261.51
2017-05-06T03:15:34.156Z,95262.88
2017-05-06T03:16:55.924Z,95265.35
2017-05-06T03:18:17.663Z,95263.11
2017-05-06T03:19:39.505Z,95258.85
2017-05-06T03:21:01.395Z,95254.66
2017-05-06T03:22:23.155Z,95255.14
2017-05-06T03:23:44.929Z,95255.07
2017-05-06T03:25:06.818Z,95252.74
2017-05-06T03:26:28.564Z,95252.25
2017-05-06T03:27:50.421Z,95250.95
2017-05-06T03:29:12.276Z,95250.17
2017-05-06T03:30:34.158Z,95250.09
2017-05-06T03:31:55.972Z,95243.97
2017-05-06T03:33:19.056Z,95245.11
2017-05-06T03:34:41.212Z,95247.61
2017-05-06T03:36:03.065Z,95246.39
2017-05-06T03:37:25.838Z,95246.48
2017-05-06T03:38:47.737Z,95247.27
2017-05-06T03:40:09.671Z,95246.25
2017-05-06T03:41:31.569Z,95243.75
2017-05-06T03:42:53.419Z,95240.93
2017-05-06T03:44:15.175Z,95236.59
2017-05-06T03:45:37.233Z,95236.61
2017-05-06T03:46:59.065Z,95238.52
2017-05-06T03:48:20.842Z,95233.52
2017-05-06T03:49:43.982Z,95234.98
2017-05-06T03:51:05.685Z,95230.8
2017-05-06T03:52:27.508Z,95234.25
2017-05-06T03:53:49.274Z,95230.89
2017-05-06T03:55:11.145Z,95229.34
2017-05-06T03:56:33.917Z,95229.63
2017-05-06T03:57:55.805Z,95230.58
2017-05-06T03:59:17.543Z,95230.31
2017-05-06T04:00:39.417Z,95232.55
2017-05-06T04:02:01.108Z,95229.72
2017-05-06T04:03:22.947Z,95226.23
2017-05-06T04:04:44.696Z,95228.71
2017-05-06T04:06:06.589Z,95228.44
2017-05-06T04:07:28.755Z,95226
2017-05-06T04:08:50.714Z,95221.63
2017-05-06T04:10:12.530Z,95224.05
2017-05-06T04:11:34.360Z,95224.49
2017-05-06T04:12:57.143Z,95226.64
2017-05-06T04:14:18.924Z,95227.08
2017-05-06T04:15:40.792Z,95227.78
2017-05-06T04:17:02.571Z,95224.44
2017-05-06T04:18:24.288Z,95227.07
2017-05-06T04:19:46.044Z,95223.64
2017-05-06T04:21:07.808Z,95220.45
2017-05-06T04:22:29.594Z,95217.88
2017-05-06T04:23:51.470Z,95221.11
2017-05-06T04:25:13.330Z,95218.72
2017-05-06T04:26:35.105Z,95223.16
2017-05-06T04:27:56.806Z,95225.48
2017-05-06T04:29:18.567Z,95217.98
2017-05-06T04:30:40.437Z,95217.77
2017-05-06T04:32:02.457Z,95209.5
2017-05-06T04:33:24.236Z,95214.31
2017-05-06T04:34:46.065Z,95212.95
2017-05-06T04:36:07.947Z,95216
2017-05-06T04:37:29.676Z,95215.73
2017-05-06T04:38:51.435Z,95209.72
2017-05-06T04:40:13.187Z,95205.77
2017-05-06T04:41:35.182Z,95203.92
2017-05-06T04:42:57.161Z,95200.51
2017-05-06T04:44:19.159Z,95193.77
2017-05-06T04:45:41.019Z,95194.33
2017-05-06T04:47:02.884Z,95193.5
2017-05-06T04:48:25.726Z,95188.84
2017-05-06T04:49:47.505Z,95189.02
2017-05-06T04:51:09.317Z,95188.24
2017-05-06T04:52:31.175Z,95186.88
2017-05-06T04:53:53.378Z,95187.55
2017-05-06T04:55:20.142Z,95186.38
2017-05-06T04:56:54.156Z,95182.94
2017-05-06T04:58:16.059Z,95182.97
2017-05-06T04:59:37.828Z,95182.79
2017-05-06T05:01:01.188Z,95180.7
2017-05-06T05:02:23.263Z,95179.41
2017-05-06T05:03:45.179Z,95179.3
2017-05-06T05:05:06.993Z,95173.84
2017-05-06T05:06:28.872Z,95177.74
2017-05-06T05:07:50.632Z,95174.42
2017-05-06T05:09:16.401Z,95173.92
2017-05-06T05:10:38.364Z,95171.36
2017-05-06T05:12:02.295Z,95172.08
2017-05-06T05:13:26.620Z,95176.89
2017-05-06T05:14:48.497Z,95176.04
2017-05-06T05:16:10.466Z,95175.11
2017-05-06T05:17:32.403Z,95174.38
2017-05-06T05:18:54.405Z,95170.38
2017-05-06T05:20:16.254Z,95167.17
2017-05-06T05:21:38.222Z,95163.56
2017-05-06T05:23:00.010Z,95165.72
2017-05-06T05:24:21.838Z,95165.78
2017-05-06T05:25:43.734Z,95168.85
2017-05-06T05:27:05.595Z,95165.74
2017-05-06T05:28:27.685Z,95163.44
2017-05-06T05:29:49.522Z,95161.31
2017-05-06T05:31:11.282Z,95157.88
2017-05-06T05:32:33.092Z,95155.92
2017-05-06T05:33:54.840Z,95156.48
2017-05-06T05:35:16.640Z,95161.7
2017-05-06T05:36:38.511Z,95163.55
2017-05-06T05:38:02.561Z,95163.67
2017-05-06T05:40:56.920Z,95160.08
2017-05-06T05:42:18.738Z,95155.84
2017-05-06T05:43:42.305Z,95159.81
2017-05-06T05:45:04.171Z,95154.52
2017-05-06T05:46:26.947Z,95156.44
2017-05-06T05:47:48.878Z,95156.75
2017-05-06T05:49:10.679Z,95157.31
2017-05-06T05:50:32.467Z,95157.88
2017-05-06T05:51:54.282Z,95157.02
2017-05-06T05:53:16.364Z,95157.01
2017-05-06T05:54:38.624Z,95154.45
2017-05-06T05:56:00.649Z,95150.92
2017-05-06T05:57:22.604Z,95150.49
2017-05-06T05:58:44.500Z,95151.07
2017-05-06T06:00:06.340Z,95149.61
2017-05-06T06:01:28.112Z,95147.13
2017-05-06T06:02:49.958Z,95142.73
2017-05-06T06:04:11.936Z,95145.06
2017-05-06T06:05:33.952Z,95147.26
2017-05-06T06:06:55.672Z,95148.23
2017-05-06T06:08:17.547Z,95150.12
2017-05-06T06:09:39.515Z,95157.08
2017-05-06T06:11:01.291Z,95155.78
2017-05-06T06:12:24.069Z,95152.85
2017-05-06T06:13:45.938Z,95152.64
2017-05-06T06:15:07.885Z,95157.02
2017-05-06T06:16:29.766Z,95151.36
2017-05-06T06:17:51.541Z,95155.85
2017-05-06T06:19:13.411Z,95158.59
2017-05-06T06:20:35.258Z,95156.45
2017-05-06T06:21:57.133Z,95161.55
2017-05-06T06:23:19.017Z,95161.41
2017-05-06T06:24:41.076Z,95160.3
2017-05-06T06:26:09.783Z,95159.55
2017-05-06T06:27:31.574Z,95160.11
2017-05-06T06:28:53.460Z,95159.59
2017-05-06T06:30:16.203Z,95160.91
2017-05-06T06:31:38.512Z,95157.02
2017-05-06T06:33:00.452Z,95158.36
2017-05-06T06:34:22.311Z,95155.21
2017-05-06T06:35:44.201Z,95149.48
2017-05-06T06:37:06.245Z,95145.37
2017-05-06T06:38:28.149Z,95147.38
2017-05-06T06:39:49.904Z,95144.86
2017-05-06T06:41:11.754Z,95150.27
2017-05-06T06:42:33.728Z,95152.88
2017-05-06T06:43:56.507Z,95155.25
2017-05-06T06:45:18.370Z,95159.94
2017-05-06T06:46:40.143Z,95158.75
2017-05-06T06:48:02.134Z,95159
2017-05-06T06:49:24.054Z,95158.09
2017-05-06T06:50:45.946Z,95157.51
2017-05-06T06:52:07.963Z,95160.64
2017-05-06T06:53:39.618Z,95160.48
2017-05-06T06:55:01.430Z,95166.09
2017-05-06T06:56:23.124Z,95165.52
2017-05-06T06:57:44.890Z,95171.98
2017-05-06T06:59:06.649Z,95164.2
2017-05-06T07:00:28.383Z,95169.27
2017-05-06T07:01:51.228Z,95166.85
2017-05-06T07:03:13.076Z,95165.73
2017-05-06T07:04:34.957Z,95167.41
2017-05-06T07:05:56.990Z,95159.81
2017-05-06T07:07:19.009Z,95160.42
2017-05-06T07:08:41.062Z,95158.53
2017-05-06T07:10:03.079Z,95153.08
2017-05-06T07:11:24.904Z,95155.75
2017-05-06T07:12:46.708Z,95154.42
2017-05-06T07:14:08.535Z,95153
2017-05-06T07:15:30.283Z,95149.39
2017-05-06T07:16:52.031Z,95151.77
2017-05-06T07:18:13.774Z,95146.37
2017-05-06T07:19:35.588Z,95143.56
2017-05-06T07:20:57.459Z,95142.86
2017-05-06T07:22:19.232Z,95142.15
2017-05-06T07:23:41.101Z,95137.34
2017-05-06T07:25:02.942Z,95128.51
2017-05-06T07:26:25.746Z,95125.84
2017-05-06T07:27:47.644Z,95123.53
2017-05-06T07:29:09.493Z,95122.22
2017-05-06T07:30:31.246Z,95120
2017-05-06T07:31:53.148Z,95119.06
2017-05-06T07:33:15.034Z,95122.46
2017-05-06T07:34:36.837Z,95123.05
2017-05-06T07:35:58.618Z,95123.76
2017-05-06T07:37:20.357Z,95121.78
2017-05-06T07:38:42.144Z,95117.84
2017-05-06T07:40:04.020Z,95115.27
2017-05-06T07:41:25.774Z,95117.05
2017-05-06T07:42:47.723Z,95114.45
2017-05-06T07:44:09.533Z,95113.47
2017-05-06T07:45:31.357Z,95108.09
2017-05-06T07:46:53.143Z,95101.66
2017-05-06T07:48:15.049Z,95100.52
2017-05-06T07:49:37.048Z,95095.02
2017-05-06T07:50:58.879Z,95096.19
2017-05-06T07:52:20.604Z,95093.55
2017-05-06T07:53:42.469Z,95090.94
2017-05-06T07:55:04.187Z,95090.02
2017-05-06T07:56:26.088Z,95092.52
2017-05-06T07:57:47.856Z,95093.98
2017-05-06T07:59:09.641Z,95095.05
2017-05-06T08:00:32.420Z,95098.92
2017-05-06T08:01:54.174Z,95098.74
2017-05-06T08:03:15.935Z,95097.62
2017-05-06T08:04:37.849Z,95098.38
2017-05-06T08:05:59.676Z,95092.05
2017-05-06T08:07:44.070Z,95087.02
2017-05-06T08:09:35.438Z,95081.33
2017-05-06T08:11:34.727Z,95067.59
2017-05-06T08:13:26.845Z,95068.94
2017-05-06T08:15:20.345Z,95067.57
2017-05-06T08:17:11.547Z,95071.2
2017-05-06T08:19:01.336Z,95077.78
2017-05-06T08:20:54.872Z,95075.52
2017-05-06T08:22:41.213Z,95074.38
2017-05-06T08:24:03.063Z,95076.54
2017-05-06T08:25:33.131Z,95073.44
2017-05-06T08:27:26.408Z,95077.3
2017-05-06T08:29:19.689Z,95076.13
2017-05-06T08:31:12.115Z,95071.27
2017-05-06T08:33:06.535Z,95072.98
2017-05-06T08:34:56.370Z,95078.58
2017-05-06T08:36:18.252Z,95081.91
2017-05-06T08:37:40.046Z,95084.89
2017-05-06T08:39:01.910Z,95074.02
2017-05-06T08:40:23.736Z,95077.89
2017-05-06T08:41:50.019Z,95072.52
2017-05-06T08:43:11.760Z,95068.39
2017-05-06T08:44:33.536Z,95071.81
2017-05-06T08:45:55.316Z,95071.19
2017-05-06T08:47:18.187Z,95071.15
2017-05-06T08:48:40.001Z,95066.48
2017-05-06T08:50:01.835Z,95061.4
2017-05-06T08:51:23.688Z,95062.52
2017-05-06T08:52:45.550Z,95056.66
2017-05-06T08:54:07.408Z,95059.06
2017-05-06T08:55:29.184Z,95058
2017-05-06T08:56:51.041Z,95053.55
2017-05-06T08:58:08.323Z,95052.73
2017-05-06T08:59:30.175Z,95045.98
2017-05-06T09:00:51.978Z,95044.97
2017-05-06T09:02:13.808Z,95039.17
2017-05-06T09:03:35.642Z,95036.25
2017-05-06T09:04:57.462Z,95038.61
2017-05-06T09:06:22.387Z,95038.55
2017-05-06T09:07:44.245Z,95035.94
2017-05-06T09:09:06.314Z,95029.8
2017-05-06T09:10:28.194Z,95030.1
2017-05-06T09:23:14.663Z,94963.52
2017-05-06T09:24:36.420Z,94973.45
2017-05-06T09:25:58.197Z,94969.47
2017-05-06T09:27:20.052Z,94967.5
2017-05-06T09:28:41.949Z,94966.34
2017-05-06T09:30:03.852Z,94958.37
2017-05-06T09:31:25.711Z,94945.69
2017-05-06T09:32:47.629Z,94939.37
2017-05-06T09:34:09.509Z,94932.31
2017-05-06T09:35:31.413Z,94927.3
2017-05-06T09:36:53.249Z,94914.37
2017-05-06T09:38:15.003Z,94907.66
2017-05-06T09:39:36.871Z,94903.94
2017-05-06T09:40:58.722Z,94903.48
2017-05-06T09:42:20.478Z,94887.41
2017-05-06T09:43:42.236Z,94871.93
2017-05-06T09:45:04.207Z,94897.37
2017-05-06T09:46:26.176Z,94848.27
2017-05-06T09:47:48.171Z,94840.37
2017-05-06T09:49:10.431Z,94847.31
2017-05-06T09:50:32.487Z,94840.31
2017-05-06T09:51:54.240Z,94825.55
2017-05-06T09:53:16.133Z,94815.11
2017-05-06T09:54:37.929Z,94808.3
2017-05-06T09:55:59.852Z,94800.14
2017-05-06T09:57:21.740Z,94789.73
2017-05-06T09:58:43.504Z,94792.05
2017-05-06T10:00:05.377Z,94793.21
2017-05-06T10:01:27.354Z,94799.78
2017-05-06T10:02:49.108Z,94792.23
2017-05-06T10:04:10.847Z,94776.6
2017-05-06T10:05:33.586Z,94765.98
2017-05-06T10:08:05.844Z,94772.8
2017-05-06T10:09:28.321Z,94780.67
2017-05-06T10:10:50.184Z,94774.69
2017-05-06T10:12:12.057Z,94776.03
2017-05-06T10:13:33.927Z,94777.03
2017-05-06T10:14:55.683Z,94782.96
2017-05-06T10:27:41.762Z,94778.27
2017-05-06T10:30:12.525Z,94808.5
2017-05-06T10:31:34.356Z,94806.03
2017-05-06T10:32:56.142Z,94791.11
2017-05-06T10:34:17.928Z,94788.23
2017-05-06T10:35:39.669Z,94778.31
2017-05-06T10:38:10.677Z,94788.3
2017-05-06T10:39:32.666Z,94786.44
2017-05-06T10:40:54.460Z,94788.89
2017-05-06T10:42:16.295Z,94782.25
2017-05-06T10:43:38.254Z,94784.3
2017-05-06T10:45:20.392Z,94781.84
2017-05-06T10:47:13.457Z,94784.42
2017-05-06T10:49:00.182Z,94780.55
2017-05-06T10:50:21.936Z,94777.05
2017-05-06T10:51:43.732Z,94774.19
2017-05-06T10:53:06.652Z,94771.48
2017-05-06T10:54:28.503Z,94768.58
2017-05-06T10:55:50.356Z,94762.34
2017-05-06T10:57:12.128Z,94756.91
2017-05-06T10:58:35.017Z,94754.81
2017-05-06T10:59:56.863Z,94752.36
2017-05-06T11:01:18.772Z,94741.3
2017-05-06T11:02:40.606Z,94733.77
2017-05-06T11:04:02.513Z,94732.05
2017-05-06T11:06:34.257Z,94735.41
2017-05-06T11:07:56.095Z,94734.68
2017-05-06T11:09:19.059Z,94729.7
2017-05-06T11:10:40.847Z,94726.33
2017-05-06T11:12:02.705Z,94717.95
2017-05-06T11:13:24.486Z,94715.62
2017-05-06T11:14:46.356Z,94716.83
2017-05-06T11:16:08.236Z,94714.56
2017-05-06T11:17:30.081Z,94701.94
2017-05-06T11:18:52.049Z,94697.91
2017-05-06T11:20:13.979Z,94696.61
2017-05-06T11:21:35.780Z,94692.77
2017-05-06T11:24:06.731Z,94683.08
2017-05-06T11:25:28.719Z,94680.08
2017-05-06T11:26:56.192Z,94683.97
2017-05-06T11:28:31.123Z,94679.15
2017-05-06T11:29:53.758Z,94676.62
2017-05-06T11:31:15.634Z,94678.83
2017-05-06T11:32:47.513Z,94677.61
2017-05-06T11:34:09.384Z,94679.39
2017-05-06T11:35:31.279Z,94682.78
2017-05-06T11:36:53.147Z,94692.22
2017-05-06T11:38:15.014Z,94696.52
2017-05-06T11:39:37.570Z,94697.61
2017-05-06T11:40:59.541Z,94698.98
2017-05-06T11:42:21.308Z,94700.33
2017-05-06T11:43:43.173Z,94699.5
2017-05-06T11:45:04.917Z,94695.7
2017-05-06T11:47:36.065Z,94699.37
2017-05-06T11:48:57.985Z,94697.73
2017-05-06T11:50:19.815Z,94696.59
2017-05-06T11:51:41.694Z,94701.77
2017-05-06T11:53:03.552Z,94704.72
2017-05-06T11:54:47.570Z,94702.3
2017-05-06T11:56:11.436Z,94707.08
2017-05-06T11:57:34.130Z,94710.71
2017-05-06T11:58:55.989Z,94696.18
2017-05-06T12:00:17.825Z,94686.59
2017-05-06T12:01:39.720Z,94694.81
2017-05-06T12:03:01.619Z,94698.93
2017-05-06T12:04:32.820Z,94702.63
2017-05-06T12:06:10.553Z,94708.88
2017-05-06T12:07:39.082Z,94703.19
2017-05-06T12:09:01.261Z,94679.45
2017-05-06T12:10:23.230Z,94670.3
2017-05-06T12:11:47.130Z,94669.31
2017-05-06T12:14:18.883Z,94651.63
2017-05-06T12:15:41.717Z,94650.8
2017-05-06T12:18:12.833Z,94641.28
2017-05-06T12:19:34.744Z,94643.5
2017-05-06T12:20:57.120Z,94635.87
2017-05-06T12:30:35.181Z,94639.55
2017-05-06T12:31:58.070Z,94618.83
2017-05-06T12:33:19.838Z,94628.15
2017-05-06T12:34:41.803Z,94607.91
2017-05-06T12:36:03.800Z,94603.97
2017-05-06T12:37:28.653Z,94606.77
2017-05-06T12:39:11.249Z,94608.91
2017-05-06T12:40:59.438Z,94605.89
2017-05-06T12:42:42.910Z,94605.69
2017-05-06T12:44:29.689Z,94607.34
2017-05-06T13:01:57.651Z,94584.08
2017-05-06T13:03:43.259Z,94582.92
2017-05-06T13:05:28.250Z,94581.06
2017-05-06T13:07:12.930Z,94575.63
2017-05-06T13:20:26.753Z,94566.44
2017-05-06T13:22:12.713Z,94573.44
2017-05-06T13:24:00.409Z,94565.41
2017-05-06T13:25:51.687Z,94550.56
2017-05-06T13:27:41.815Z,94524.97
2017-05-06T13:29:28.830Z,94521.27
2017-05-06T13:31:12.485Z,94519.47
2017-05-06T13:32:55.133Z,94512.05
2017-05-06T13:34:35.237Z,94514.09
2017-05-06T13:36:21.047Z,94513.78
2017-05-06T13:37:42.792Z,94510.48
2017-05-06T13:39:04.607Z,94507.59
2017-05-06T13:40:26.433Z,94509.45
2017-05-06T13:41:48.241Z,94511.28
2017-05-06T13:43:10.023Z,94517.19
2017-05-06T13:44:31.962Z,94512.45
2017-05-06T13:45:53.730Z,94514.24
2017-05-06T13:47:15.542Z,94512.86
2017-05-06T13:48:37.324Z,94513.84
2017-05-06T13:49:59.883Z,94510.45
2017-05-06T13:51:22.562Z,94511.69
2017-05-06T13:52:44.587Z,94505.75
2017-05-06T13:54:06.432Z,94497.83
2017-05-06T13:55:29.491Z,94505.24
2017-05-06T13:56:51.601Z,94507.08
2017-05-06T13:58:14.060Z,94504.55
2017-05-06T13:59:36.467Z,94504.33
2017-05-06T14:00:58.711Z,94511.8
2017-05-06T14:02:21.130Z,94509.11
2017-05-06T14:03:43.022Z,94502.91
2017-05-06T14:05:04.818Z,94505.86
2017-05-06T14:06:26.683Z,94506.16
2017-05-06T14:07:48.611Z,94502.87
2017-05-06T14:09:10.485Z,94497.82
2017-05-06T14:10:32.347Z,94504.22
2017-05-06T14:11:54.168Z,94503.81
2017-05-06T14:13:15.969Z,94504.28
2017-05-06T14:14:41.051Z,94501.59
2017-05-06T14:16:15.437Z,94498.45
2017-05-06T14:17:37.295Z,94496
2017-05-06T14:18:59.143Z,94499.45
2017-05-06T14:20:21.062Z,94498.69
2017-05-06T14:21:43.827Z,94499.58
2017-05-06T14:23:05.633Z,94498.58
2017-05-06T14:24:27.460Z,94496.08
2017-05-06T14:25:49.430Z,94496.75
2017-05-06T14:27:11.256Z,94495.96
2017-05-06T14:28:33.128Z,94495.91
2017-05-06T14:29:55.031Z,94493.24
2017-05-06T14:31:16.845Z,94486.14
2017-05-06T14:32:38.773Z,94494.87
2017-05-06T14:34:00.582Z,94493.66
2017-05-06T14:35:22.371Z,94492.3
2017-05-06T14:36:44.399Z,94494.77
2017-05-06T14:38:06.225Z,94502.38
2017-05-06T14:39:28.035Z,94503.43
2017-05-06T14:40:49.891Z,94500.69
2017-05-06T14:42:11.715Z,94497.56
2017-05-06T14:43:34.563Z,94495.11
2017-05-06T14:44:56.426Z,94494.16
2017-05-06T14:46:18.282Z,94494.03
2017-05-06T14:47:40.159Z,94496.05
2017-05-06T14:49:02.121Z,94500.64
2017-05-06T14:50:23.991Z,94495.33
2017-05-06T14:51:45.831Z,94494.99
2017-05-06T14:53:07.751Z,94496.2
2017-05-06T14:54:30.755Z,94496.14
2017-05-06T14:55:52.575Z,94494.32
2017-05-06T14:57:14.474Z,94500.64
2017-05-06T14:58:52.190Z,94500.84
2017-05-06T15:00:15.054Z,94502.01
2017-05-06T15:01:37.039Z,94500.37
2017-05-06T15:04:12.835Z,94499.34
2017-05-06T15:05:34.943Z,94494.31
2017-05-06T15:06:56.825Z,94498.7
2017-05-06T15:08:18.809Z,94500.09
2017-05-06T15:09:40.638Z,94495.91
2017-05-06T15:11:02.483Z,94497.23
2017-05-06T15:12:30.495Z,94495.75
2017-05-06T15:13:59.540Z,94499.11
2017-05-06T15:15:21.489Z,94504.17
2017-05-06T15:16:43.440Z,94495.89
2017-05-06T15:18:10.697Z,94499.2
2017-05-06T15:19:33.060Z,94496.45
2017-05-06T15:20:55.105Z,94503.23
2017-05-06T15:22:17.095Z,94504.82
2017-05-06T15:23:38.977Z,94501.05
2017-05-06T15:25:00.830Z,94503.78
2017-05-06T15:26:22.695Z,94503.42
2017-05-06T15:27:44.642Z,94501.42
2017-05-06T15:29:06.510Z,94502.28
2017-05-06T15:30:28.419Z,94496.11
2017-05-06T15:31:50.506Z,94497.55
2017-05-06T15:33:12.461Z,94495.44
2017-05-06T15:34:34.376Z,94496.2
2017-05-06T15:35:56.278Z,94498.95
2017-05-06T15:37:18.114Z,94498.44
2017-05-06T15:38:39.934Z,94501.23
2017-05-06T15:40:12.343Z,94501.02
2017-05-06T15:41:34.204Z,94503.34
2017-05-06T15:42:56.176Z,94502.56
2017-05-06T15:44:18.034Z,94504.55
2017-05-06T15:45:39.911Z,94505.64
2017-05-06T15:47:01.820Z,94502.39
2017-05-06T15:48:23.688Z,94501.22
2017-05-06T15:49:45.539Z,94504.61
2017-05-06T15:51:07.418Z,94500.44
2017-05-06T15:52:29.315Z,94503.44
2017-05-06T15:53:51.267Z,94501.64
2017-05-06T15:55:13.286Z,94501.92
2017-05-06T15:56:35.407Z,94500.65
2017-05-06T15:57:57.248Z,94501.2
2017-05-06T15:59:20.025Z,94498.34
2017-05-06T16:00:55.014Z,94499.51
2017-05-06T16:02:17.288Z,94499.44
2017-05-06T16:03:39.081Z,94500.91
2017-05-06T16:05:00.939Z,94497.73
2017-05-06T16:06:22.737Z,94498.24
2017-05-06T16:07:44.541Z,94499.77
2017-05-06T16:09:06.321Z,94497.73
2017-05-06T16:10:37.905Z,94500.7
2017-05-06T16:12:00.014Z,94502.14
2017-05-06T16:15:39.350Z,94498.46
2017-05-06T20:19:42.784Z,94780.92
2017-05-06T20:24:53.768Z,94789.5
2017-05-06T20:42:41.071Z,94816.78
2017-05-06T20:44:08.706Z,94823.59
2017-05-06T20:45:32.844Z,94832.5
2017-05-06T20:47:05.188Z,94834.58
2017-05-06T20:48:28.929Z,94846.69
2017-05-06T20:49:58.260Z,94834.37
2017-05-06T20:51:33.244Z,94844.41
2017-05-06T20:52:58.709Z,94841.61
2017-05-06T20:54:24.915Z,94837.62
2017-05-06T20:55:52.586Z,94836.04
2017-05-06T20:57:17.361Z,94836.01
2017-05-06T21:00:27.113Z,94847.87
2017-05-06T21:31:54.181Z,94886.74
2017-05-06T21:35:06.917Z,94891.34
2017-05-06T21:36:30.393Z,94901.7
2017-05-06T21:37:53.801Z,94894.68
2017-05-06T21:39:37.004Z,94902.63
2017-05-06T21:42:36.870Z,94904.74
2017-05-06T22:50:28.083Z,95012.18
2017-05-06T22:56:43.851Z,95012.66
2017-05-06T22:58:25.418Z,95016.95
2017-05-06T22:59:47.495Z,95023.33
2017-05-06T23:01:09.502Z,95021.31
2017-05-06T23:02:34.942Z,95020.59
2017-05-06T23:03:56.919Z,95024.84
2017-05-06T23:05:18.795Z,95028.08
2017-05-06T23:06:40.638Z,95031.19
2017-05-06T23:08:02.698Z,95034.34
2017-05-06T23:09:27.976Z,95031.96
2017-05-06T23:11:09.790Z,95032.09
2017-05-06T23:12:41.849Z,95034.88
2017-05-06T23:14:04.489Z,95030.08
2017-05-06T23:15:27.286Z,95042.03
2017-05-06T23:16:50.017Z,95037.3
2017-05-06T23:18:12.232Z,95039.39
2017-05-06T23:19:34.396Z,95046.77
2017-05-06T23:20:56.518Z,95031.37
2017-05-06T23:22:20.818Z,95044.05
2017-05-06T23:23:43.027Z,95044.59
2017-05-06T23:25:05.076Z,95050.05
2017-05-06T23:26:27.091Z,95051.77
2017-05-06T23:27:49.093Z,95049.52
2017-05-06T23:29:11.113Z,95049.36
2017-05-06T23:30:33.105Z,95049.64
2017-05-06T23:31:55.090Z,95050.27
2017-05-06T23:33:17.037Z,95049.86
2017-05-06T23:34:39.119Z,95047.45
2017-05-06T23:36:01.169Z,95044.49
2017-05-06T23:37:23.088Z,95052.06
2017-05-06T23:38:45.017Z,95050.48
2017-05-06T23:40:07.137Z,95058.47
2017-05-06T23:41:28.994Z,95051.03
2017-05-06T23:42:51.420Z,95049.77
2017-05-06T23:44:29.670Z,95061.02
2017-05-06T23:45:53.842Z,95053.8
2017-05-06T23:47:17.471Z,95058.7
2017-05-06T23:48:40.241Z,95052.14